sensor_id;sensor_type;location;lat;lon;timestamp;pressure;altitude;pressure_sealevel;temperature;humidity
59272;BME280;45043;51.068;7.026;2022-11-09T00:02:28;99592.84;;;11.49;56.59
59272;BME280;45043;51.068;7.026;2022-11-09T00:05:28;99585.91;;;11.48;56.94
59272;BME280;45043;51.068;7.026;2022-11-09T00:08:28;99586.72;;;11.49;56.50
59272;BME280;45043;51.068;7.026;2022-11-09T00:11:29;99568.09;;;11.49;56.58
59272;BME280;45043;51.068;7.026;2022-11-09T00:14:30;99590.00;;;11.51;56.42
59272;BME280;45043;51.068;7.026;2022-11-09T00:17:30;99586.72;;;11.49;56.42
59272;BME280;45043;51.068;7.026;2022-11-09T00:20:31;99585.13;;;11.48;56.55
59272;BME280;45043;51.068;7.026;2022-11-09T00:23:32;99589.84;;;11.45;56.61
59272;BME280;45043;51.068;7.026;2022-11-09T00:26:32;99591.31;;;11.41;57.08
59272;BME280;45043;51.068;7.026;2022-11-09T00:29:33;99590.94;;;11.38;57.09
59272;BME280;45043;51.068;7.026;2022-11-09T00:32:33;99586.97;;;11.29;57.39
59272;BME280;45043;51.068;7.026;2022-11-09T00:35:37;99590.00;;;11.32;57.25
59272;BME280;45043;51.068;7.026;2022-11-09T00:38:38;99579.59;;;11.31;57.49
59272;BME280;45043;51.068;7.026;2022-11-09T00:41:39;99588.16;;;11.33;57.17
59272;BME280;45043;51.068;7.026;2022-11-09T00:44:40;99590.22;;;11.31;57.37
59272;BME280;45043;51.068;7.026;2022-11-09T00:47:43;99597.75;;;11.34;57.55
59272;BME280;45043;51.068;7.026;2022-11-09T00:50:51;99591.84;;;11.32;57.51
59272;BME280;45043;51.068;7.026;2022-11-09T00:53:52;99576.19;;;11.24;57.63
59272;BME280;45043;51.068;7.026;2022-11-09T00:56:54;99595.75;;;11.29;57.80
59272;BME280;45043;51.068;7.026;2022-11-09T00:59:54;99597.25;;;11.25;57.77
59272;BME280;45043;51.068;7.026;2022-11-09T01:02:55;99596.22;;;11.26;57.67
59272;BME280;45043;51.068;7.026;2022-11-09T01:05:58;99590.88;;;11.26;57.71
59272;BME280;45043;51.068;7.026;2022-11-09T01:08:59;99585.06;;;11.17;57.53
59272;BME280;45043;51.068;7.026;2022-11-09T01:11:59;99589.94;;;11.20;58.17
59272;BME280;45043;51.068;7.026;2022-11-09T01:15:00;99607.94;;;11.18;58.36
59272;BME280;45043;51.068;7.026;2022-11-09T01:18:01;99601.38;;;11.21;58.21
59272;BME280;45043;51.068;7.026;2022-11-09T01:21:03;99596.06;;;11.21;58.00
59272;BME280;45043;51.068;7.026;2022-11-09T01:24:05;99597.94;;;11.20;58.19
59272;BME280;45043;51.068;7.026;2022-11-09T01:27:05;99599.53;;;11.21;57.90
59272;BME280;45043;51.068;7.026;2022-11-09T01:30:06;99593.41;;;11.21;57.78
59272;BME280;45043;51.068;7.026;2022-11-09T01:33:09;99602.19;;;11.21;57.92
59272;BME280;45043;51.068;7.026;2022-11-09T01:36:13;99600.13;;;11.24;57.80
59272;BME280;45043;51.068;7.026;2022-11-09T01:39:14;99603.81;;;11.23;57.53
59272;BME280;45043;51.068;7.026;2022-11-09T01:42:21;99622.00;;;11.26;57.83
59272;BME280;45043;51.068;7.026;2022-11-09T01:45:28;99612.97;;;11.27;57.15
59272;BME280;45043;51.068;7.026;2022-11-09T01:51:42;99609.25;;;11.28;57.20
59272;BME280;45043;51.068;7.026;2022-11-09T01:54:48;99614.16;;;11.31;57.24
59272;BME280;45043;51.068;7.026;2022-11-09T01:57:57;99611.72;;;11.29;57.06
59272;BME280;45043;51.068;7.026;2022-11-09T02:00:59;99614.38;;;11.29;57.15
59272;BME280;45043;51.068;7.026;2022-11-09T02:04:08;99611.47;;;11.31;56.87
59272;BME280;45043;51.068;7.026;2022-11-09T02:07:10;99612.75;;;11.28;57.29
59272;BME280;45043;51.068;7.026;2022-11-09T02:10:31;99612.16;;;11.26;57.09
59272;BME280;45043;51.068;7.026;2022-11-09T02:13:37;99606.16;;;11.31;57.28
59272;BME280;45043;51.068;7.026;2022-11-09T02:16:43;99606.16;;;11.31;57.24
59272;BME280;45043;51.068;7.026;2022-11-09T02:19:44;99594.78;;;11.24;57.31
59272;BME280;45043;51.068;7.026;2022-11-09T02:22:45;99594.06;;;11.16;57.80
59272;BME280;45043;51.068;7.026;2022-11-09T02:25:50;99607.34;;;11.16;57.83
59272;BME280;45043;51.068;7.026;2022-11-09T02:28:53;99604.69;;;11.16;57.63
59272;BME280;45043;51.068;7.026;2022-11-09T02:31:59;99597.31;;;11.18;57.74
59272;BME280;45043;51.068;7.026;2022-11-09T02:35:01;99606.53;;;11.16;57.87
59272;BME280;45043;51.068;7.026;2022-11-09T02:38:04;99610.25;;;11.15;57.73
59272;BME280;45043;51.068;7.026;2022-11-09T02:41:05;99603.88;;;11.16;58.02
59272;BME280;45043;51.068;7.026;2022-11-09T02:44:06;99598.19;;;11.12;58.18
59272;BME280;45043;51.068;7.026;2022-11-09T02:47:08;99601.09;;;11.11;57.94
59272;BME280;45043;51.068;7.026;2022-11-09T02:50:09;99592.31;;;11.10;57.83
59272;BME280;45043;51.068;7.026;2022-11-09T02:53:10;99600.03;;;11.12;58.35
59272;BME280;45043;51.068;7.026;2022-11-09T02:56:14;99595.41;;;11.07;58.44
59272;BME280;45043;51.068;7.026;2022-11-09T02:59:15;99600.72;;;11.07;58.15
59272;BME280;45043;51.068;7.026;2022-11-09T03:02:16;99604.19;;;11.08;58.51
59272;BME280;45043;51.068;7.026;2022-11-09T03:05:16;99605.41;;;11.05;58.48
59272;BME280;45043;51.068;7.026;2022-11-09T03:08:18;99606.91;;;11.01;58.33
59272;BME280;45043;51.068;7.026;2022-11-09T03:11:19;99603.59;;;11.06;58.36
59272;BME280;45043;51.068;7.026;2022-11-09T03:14:20;99603.81;;;11.04;58.47
59272;BME280;45043;51.068;7.026;2022-11-09T03:17:25;99600.72;;;11.07;58.00
59272;BME280;45043;51.068;7.026;2022-11-09T03:20:26;99614.00;;;11.07;58.17
59272;BME280;45043;51.068;7.026;2022-11-09T03:23:26;99606.63;;;11.09;58.28
59272;BME280;45043;51.068;7.026;2022-11-09T03:26:27;99610.91;;;11.10;57.99
59272;BME280;45043;51.068;7.026;2022-11-09T03:29:28;99617.03;;;11.11;58.11
59272;BME280;45043;51.068;7.026;2022-11-09T03:32:29;99606.16;;;11.12;58.30
59272;BME280;45043;51.068;7.026;2022-11-09T03:35:30;99609.88;;;11.11;58.40
59272;BME280;45043;51.068;7.026;2022-11-09T03:38:31;99612.53;;;11.11;58.55
59272;BME280;45043;51.068;7.026;2022-11-09T03:41:32;99607.22;;;11.11;58.67
59272;BME280;45043;51.068;7.026;2022-11-09T03:44:33;99623.16;;;11.11;58.25
59272;BME280;45043;51.068;7.026;2022-11-09T03:47:33;99617.47;;;11.08;58.29
59272;BME280;45043;51.068;7.026;2022-11-09T03:50:35;99619.47;;;11.12;58.50
59272;BME280;45043;51.068;7.026;2022-11-09T03:53:39;99615.41;;;11.10;58.72
59272;BME280;45043;51.068;7.026;2022-11-09T03:56:39;99619.19;;;11.02;58.81
59272;BME280;45043;51.068;7.026;2022-11-09T03:59:40;99627.53;;;11.06;58.80
59272;BME280;45043;51.068;7.026;2022-11-09T04:02:41;99624.03;;;11.05;58.72
59272;BME280;45043;51.068;7.026;2022-11-09T04:05:41;99624.25;;;11.04;59.04
59272;BME280;45043;51.068;7.026;2022-11-09T04:08:42;99637.19;;;11.00;58.97
59272;BME280;45043;51.068;7.026;2022-11-09T04:11:42;99621.09;;;10.95;58.79
59272;BME280;45043;51.068;7.026;2022-11-09T04:14:42;99634.75;;;10.99;59.06
59272;BME280;45043;51.068;7.026;2022-11-09T04:17:43;99628.59;;;10.98;59.05
59272;BME280;45043;51.068;7.026;2022-11-09T04:20:46;99636.81;;;10.96;58.97
59272;BME280;45043;51.068;7.026;2022-11-09T04:23:47;99632.91;;;10.99;59.10
59272;BME280;45043;51.068;7.026;2022-11-09T04:26:48;99633.72;;;11.00;58.84
59272;BME280;45043;51.068;7.026;2022-11-09T04:29:49;99636.00;;;10.96;58.98
59272;BME280;45043;51.068;7.026;2022-11-09T04:32:49;99638.66;;;10.96;59.56
59272;BME280;45043;51.068;7.026;2022-11-09T04:35:50;99633.91;;;10.98;59.08
59272;BME280;45043;51.068;7.026;2022-11-09T04:38:51;99640.06;;;10.99;59.01
59272;BME280;45043;51.068;7.026;2022-11-09T04:41:51;99632.72;;;10.94;58.96
59272;BME280;45043;51.068;7.026;2022-11-09T04:44:52;99625.78;;;10.93;58.92
59272;BME280;45043;51.068;7.026;2022-11-09T04:48:00;99631.88;;;11.00;59.26
59272;BME280;45043;51.068;7.026;2022-11-09T04:51:06;99631.06;;;11.00;58.51
59272;BME280;45043;51.068;7.026;2022-11-09T04:54:07;99641.44;;;11.01;58.50
59272;BME280;45043;51.068;7.026;2022-11-09T04:57:07;99639.22;;;10.98;58.54
59272;BME280;45043;51.068;7.026;2022-11-09T05:00:08;99656.44;;;10.95;58.60
59272;BME280;45043;51.068;7.026;2022-11-09T05:03:09;99645.44;;;10.92;59.11
59272;BME280;45043;51.068;7.026;2022-11-09T05:06:10;99658.72;;;10.92;59.10
59272;BME280;45043;51.068;7.026;2022-11-09T05:09:29;99661.38;;;10.92;58.98
59272;BME280;45043;51.068;7.026;2022-11-09T05:12:29;99649.13;;;10.91;59.04
59272;BME280;45043;51.068;7.026;2022-11-09T05:15:30;99656.44;;;10.95;58.98
59272;BME280;45043;51.068;7.026;2022-11-09T05:18:32;99653.63;;;10.90;59.06
59272;BME280;45043;51.068;7.026;2022-11-09T05:21:32;99672.34;;;11.02;58.93
59272;BME280;45043;51.068;7.026;2022-11-09T05:24:33;99669.38;;;11.10;59.03
59272;BME280;45043;51.068;7.026;2022-11-09T05:27:33;99673.00;;;11.34;59.13
59272;BME280;45043;51.068;7.026;2022-11-09T05:30:34;99664.09;;;11.47;58.94
59272;BME280;45043;51.068;7.026;2022-11-09T05:33:35;99658.59;;;11.60;58.58
59272;BME280;45043;51.068;7.026;2022-11-09T05:36:35;99667.13;;;11.69;58.43
59272;BME280;45043;51.068;7.026;2022-11-09T05:39:35;99662.81;;;11.68;58.37
59272;BME280;45043;51.068;7.026;2022-11-09T05:42:38;99663.94;;;11.60;57.98
59272;BME280;45043;51.068;7.026;2022-11-09T05:45:39;99657.88;;;11.53;58.79
59272;BME280;45043;51.068;7.026;2022-11-09T05:48:40;99656.69;;;11.67;58.21
59272;BME280;45043;51.068;7.026;2022-11-09T05:51:41;99641.88;;;11.72;58.04
59272;BME280;45043;51.068;7.026;2022-11-09T05:54:41;99636.16;;;11.75;57.87
59272;BME280;45043;51.068;7.026;2022-11-09T05:57:42;99646.97;;;11.80;57.62
59272;BME280;45043;51.068;7.026;2022-11-09T06:00:42;99643.00;;;11.82;57.70
59272;BME280;45043;51.068;7.026;2022-11-09T06:03:43;99653.91;;;11.81;57.69
59272;BME280;45043;51.068;7.026;2022-11-09T06:06:44;99643.69;;;11.78;57.58
59272;BME280;45043;51.068;7.026;2022-11-09T06:09:44;99650.63;;;11.79;57.49
59272;BME280;45043;51.068;7.026;2022-11-09T06:12:49;99672.28;;;11.82;57.58
59272;BME280;45043;51.068;7.026;2022-11-09T06:15:58;99671.16;;;11.72;58.14
59272;BME280;45043;51.068;7.026;2022-11-09T06:18:59;99664.72;;;11.61;59.05
59272;BME280;45043;51.068;7.026;2022-11-09T06:22:00;99687.06;;;11.41;60.12
59272;BME280;45043;51.068;7.026;2022-11-09T06:25:00;99672.22;;;11.34;60.43
59272;BME280;45043;51.068;7.026;2022-11-09T06:28:01;99684.19;;;11.25;60.97
59272;BME280;45043;51.068;7.026;2022-11-09T06:31:04;99683.81;;;11.21;61.44
59272;BME280;45043;51.068;7.026;2022-11-09T06:34:05;99685.72;;;11.14;61.73
59272;BME280;45043;51.068;7.026;2022-11-09T06:37:05;99690.66;;;11.10;62.14
59272;BME280;45043;51.068;7.026;2022-11-09T06:40:06;99687.19;;;11.10;62.18
59272;BME280;45043;51.068;7.026;2022-11-09T06:43:08;99699.56;;;11.16;62.56
59272;BME280;45043;51.068;7.026;2022-11-09T06:46:09;99689.19;;;11.14;62.43
59272;BME280;45043;51.068;7.026;2022-11-09T06:49:10;99682.63;;;11.17;61.86
59272;BME280;45043;51.068;7.026;2022-11-09T06:52:10;99683.19;;;11.19;61.40
59272;BME280;45043;51.068;7.026;2022-11-09T06:55:11;99691.41;;;11.17;61.55
59272;BME280;45043;51.068;7.026;2022-11-09T06:58:13;99691.34;;;11.24;61.33
59272;BME280;45043;51.068;7.026;2022-11-09T07:01:16;99687.59;;;11.32;61.26
59272;BME280;45043;51.068;7.026;2022-11-09T07:04:18;99690.53;;;11.42;61.01
59272;BME280;45043;51.068;7.026;2022-11-09T07:07:19;99709.88;;;11.49;60.90
59272;BME280;45043;51.068;7.026;2022-11-09T07:10:19;99710.69;;;11.50;60.85
59272;BME280;45043;51.068;7.026;2022-11-09T07:13:20;99708.88;;;11.50;60.42
59272;BME280;45043;51.068;7.026;2022-11-09T07:16:20;99718.03;;;11.54;60.82
59272;BME280;45043;51.068;7.026;2022-11-09T07:19:21;99718.97;;;11.60;60.34
59272;BME280;45043;51.068;7.026;2022-11-09T07:22:21;99719.72;;;11.67;59.99
59272;BME280;45043;51.068;7.026;2022-11-09T07:25:22;99720.03;;;11.59;60.54
59272;BME280;45043;51.068;7.026;2022-11-09T07:28:24;99721.28;;;11.56;60.69
59272;BME280;45043;51.068;7.026;2022-11-09T07:31:24;99729.84;;;11.58;60.93
59272;BME280;45043;51.068;7.026;2022-11-09T07:34:28;99722.16;;;11.50;61.08
59272;BME280;45043;51.068;7.026;2022-11-09T07:37:29;99728.69;;;11.54;61.03
59272;BME280;45043;51.068;7.026;2022-11-09T07:40:30;99736.41;;;11.56;60.91
59272;BME280;45043;51.068;7.026;2022-11-09T07:43:30;99731.59;;;11.46;61.25
59272;BME280;45043;51.068;7.026;2022-11-09T07:46:32;99737.38;;;11.43;61.06
59272;BME280;45043;51.068;7.026;2022-11-09T07:49:34;99734.78;;;11.36;60.89
59272;BME280;45043;51.068;7.026;2022-11-09T07:52:35;99731.00;;;11.26;61.33
59272;BME280;45043;51.068;7.026;2022-11-09T07:55:36;99736.88;;;11.28;61.38
59272;BME280;45043;51.068;7.026;2022-11-09T07:58:37;99741.88;;;11.24;61.43
59272;BME280;45043;51.068;7.026;2022-11-09T08:01:37;99744.53;;;11.24;61.65
59272;BME280;45043;51.068;7.026;2022-11-09T08:04:38;99744.63;;;11.11;62.28
59272;BME280;45043;51.068;7.026;2022-11-09T08:07:38;99756.94;;;11.05;62.43
59272;BME280;45043;51.068;7.026;2022-11-09T08:10:39;99758.97;;;11.10;62.30
59272;BME280;45043;51.068;7.026;2022-11-09T08:13:40;99758.97;;;11.10;62.03
59272;BME280;45043;51.068;7.026;2022-11-09T08:16:40;99752.38;;;11.12;61.60
59272;BME280;45043;51.068;7.026;2022-11-09T08:19:41;99750.31;;;11.14;61.83
59272;BME280;45043;51.068;7.026;2022-11-09T08:22:42;99758.25;;;11.21;61.62
59272;BME280;45043;51.068;7.026;2022-11-09T08:25:43;99760.38;;;11.31;61.53
59272;BME280;45043;51.068;7.026;2022-11-09T08:28:44;99757.00;;;11.42;61.58
59272;BME280;45043;51.068;7.026;2022-11-09T08:31:44;99767.97;;;11.52;61.69
59272;BME280;45043;51.068;7.026;2022-11-09T08:34:46;99764.22;;;11.60;61.56
59272;BME280;45043;51.068;7.026;2022-11-09T08:37:49;99770.41;;;11.72;61.50
59272;BME280;45043;51.068;7.026;2022-11-09T08:40:55;99774.69;;;11.80;61.30
59272;BME280;45043;51.068;7.026;2022-11-09T08:43:56;99779.53;;;11.83;60.87
59272;BME280;45043;51.068;7.026;2022-11-09T08:46:57;99780.28;;;11.90;60.75
59272;BME280;45043;51.068;7.026;2022-11-09T08:49:57;99785.91;;;12.00;60.37
59272;BME280;45043;51.068;7.026;2022-11-09T08:53:00;99775.69;;;11.97;60.83
59272;BME280;45043;51.068;7.026;2022-11-09T08:56:00;99776.13;;;11.94;61.16
59272;BME280;45043;51.068;7.026;2022-11-09T08:59:01;99784.88;;;12.01;60.73
59272;BME280;45043;51.068;7.026;2022-11-09T09:02:02;99788.72;;;12.05;61.08
59272;BME280;45043;51.068;7.026;2022-11-09T09:05:03;99789.44;;;12.12;61.20
59272;BME280;45043;51.068;7.026;2022-11-09T09:08:04;99783.53;;;12.10;60.93
59272;BME280;45043;51.068;7.026;2022-11-09T09:11:06;99784.59;;;12.09;60.93
59272;BME280;45043;51.068;7.026;2022-11-09T09:14:06;99784.59;;;12.09;60.48
59272;BME280;45043;51.068;7.026;2022-11-09T09:17:07;99777.38;;;12.28;59.98
59272;BME280;45043;51.068;7.026;2022-11-09T09:20:08;99789.09;;;12.39;59.86
59272;BME280;45043;51.068;7.026;2022-11-09T09:23:08;99787.31;;;12.51;59.39
59272;BME280;45043;51.068;7.026;2022-11-09T09:26:10;99782.56;;;12.53;58.70
59272;BME280;45043;51.068;7.026;2022-11-09T09:29:12;99782.56;;;12.53;58.53
59272;BME280;45043;51.068;7.026;2022-11-09T09:32:13;99793.19;;;12.41;57.75
59272;BME280;45043;51.068;7.026;2022-11-09T09:35:13;99786.19;;;12.29;56.60
59272;BME280;45043;51.068;7.026;2022-11-09T09:38:14;99797.59;;;12.17;56.01
59272;BME280;45043;51.068;7.026;2022-11-09T09:45:01;99809.13;;;11.93;53.91
59272;BME280;45043;51.068;7.026;2022-11-09T09:48:34;99815.56;;;11.85;54.05
59272;BME280;45043;51.068;7.026;2022-11-09T09:51:41;99817.53;;;11.90;53.65
59272;BME280;45043;51.068;7.026;2022-11-09T09:55:03;99817.16;;;11.86;53.53
59272;BME280;45043;51.068;7.026;2022-11-09T09:58:13;99827.81;;;11.86;53.28
59272;BME280;45043;51.068;7.026;2022-11-09T10:01:20;99833.94;;;11.87;52.68
59272;BME280;45043;51.068;7.026;2022-11-09T10:04:33;99844.59;;;11.87;52.54
59272;BME280;45043;51.068;7.026;2022-11-09T10:07:41;99834.84;;;11.81;52.45
59272;BME280;45043;51.068;7.026;2022-11-09T10:10:53;99846.81;;;11.90;51.96
59272;BME280;45043;51.068;7.026;2022-11-09T10:14:23;99852.38;;;11.88;51.88
59272;BME280;45043;51.068;7.026;2022-11-09T10:17:56;99847.00;;;11.95;51.56
59272;BME280;45043;51.068;7.026;2022-11-09T10:27:47;99837.91;;;12.03;51.21
59272;BME280;45043;51.068;7.026;2022-11-09T10:30:50;99842.19;;;12.04;50.54
59272;BME280;45043;51.068;7.026;2022-11-09T10:33:59;99843.22;;;12.03;49.90
59272;BME280;45043;51.068;7.026;2022-11-09T10:37:17;99853.63;;;11.86;49.25
59272;BME280;45043;51.068;7.026;2022-11-09T10:40:27;99854.72;;;11.78;49.31
59272;BME280;45043;51.068;7.026;2022-11-09T10:43:46;99853.34;;;11.69;49.79
59272;BME280;45043;51.068;7.026;2022-11-09T10:47:10;99858.31;;;11.65;49.47
59272;BME280;45043;51.068;7.026;2022-11-09T10:50:34;99858.78;;;11.56;49.26
59272;BME280;45043;51.068;7.026;2022-11-09T10:54:13;99857.81;;;11.50;49.13
59272;BME280;45043;51.068;7.026;2022-11-09T10:57:33;99869.91;;;11.46;49.02
59272;BME280;45043;51.068;7.026;2022-11-09T11:04:41;99863.56;;;11.47;49.32
59272;BME280;45043;51.068;7.026;2022-11-09T11:08:21;99879.22;;;11.62;49.07
59272;BME280;45043;51.068;7.026;2022-11-09T11:11:41;99873.00;;;11.68;48.31
59272;BME280;45043;51.068;7.026;2022-11-09T11:15:00;99857.03;;;11.68;47.13
59272;BME280;45043;51.068;7.026;2022-11-09T11:18:22;99874.00;;;11.74;46.98
59272;BME280;45043;51.068;7.026;2022-11-09T11:21:42;99865.00;;;11.75;46.28
59272;BME280;45043;51.068;7.026;2022-11-09T11:25:16;99867.66;;;11.75;46.06
59272;BME280;45043;51.068;7.026;2022-11-09T11:28:44;99866.19;;;11.79;46.08
59272;BME280;45043;51.068;7.026;2022-11-09T11:32:10;99868.56;;;11.87;46.44
59272;BME280;45043;51.068;7.026;2022-11-09T11:35:36;99868.44;;;12.00;46.58
59272;BME280;45043;51.068;7.026;2022-11-09T11:39:36;99858.75;;;12.06;46.25
59272;BME280;45043;51.068;7.026;2022-11-09T11:46:50;99865.16;;;11.98;45.25
59272;BME280;45043;51.068;7.026;2022-11-09T11:57:45;99864.28;;;12.23;45.16
59272;BME280;45043;51.068;7.026;2022-11-09T12:09:06;99886.34;;;12.11;44.62
59272;BME280;45043;51.068;7.026;2022-11-09T12:16:19;99875.25;;;12.33;44.10
59272;BME280;45043;51.068;7.026;2022-11-09T12:20:14;99863.34;;;12.35;44.47
59272;BME280;45043;51.068;7.026;2022-11-09T12:34:18;99854.69;;;12.40;44.33
59272;BME280;45043;51.068;7.026;2022-11-09T12:41:13;99874.25;;;12.64;44.29
59272;BME280;45043;51.068;7.026;2022-11-09T12:44:41;99870.41;;;12.60;43.82
59272;BME280;45043;51.068;7.026;2022-11-09T12:51:44;99867.38;;;12.56;43.54
59272;BME280;45043;51.068;7.026;2022-11-09T12:55:03;99868.88;;;12.34;42.99
59272;BME280;45043;51.068;7.026;2022-11-09T12:58:25;99870.00;;;12.26;43.64
59272;BME280;45043;51.068;7.026;2022-11-09T13:01:49;99878.66;;;12.22;43.47
59272;BME280;45043;51.068;7.026;2022-11-09T13:05:45;99890.84;;;12.11;43.60
59272;BME280;45043;51.068;7.026;2022-11-09T13:12:39;99900.25;;;12.13;43.41
59272;BME280;45043;51.068;7.026;2022-11-09T13:16:29;99893.56;;;12.04;43.13
59272;BME280;45043;51.068;7.026;2022-11-09T13:19:48;99895.66;;;12.02;43.70
59272;BME280;45043;51.068;7.026;2022-11-09T13:23:24;99896.53;;;11.96;43.53
59272;BME280;45043;51.068;7.026;2022-11-09T13:33:43;99897.34;;;12.70;42.59
59272;BME280;45043;51.068;7.026;2022-11-09T13:44:19;99910.00;;;12.75;41.45
59272;BME280;45043;51.068;7.026;2022-11-09T13:47:48;99933.47;;;13.03;41.15
59272;BME280;45043;51.068;7.026;2022-11-09T13:54:33;99911.69;;;13.59;40.36
59272;BME280;45043;51.068;7.026;2022-11-09T13:57:53;99912.53;;;13.72;40.12
59272;BME280;45043;51.068;7.026;2022-11-09T14:01:32;99921.91;;;13.62;40.17
59272;BME280;45043;51.068;7.026;2022-11-09T14:04:51;99915.34;;;13.77;40.48
59272;BME280;45043;51.068;7.026;2022-11-09T14:08:21;99964.22;;;13.47;40.73
59272;BME280;45043;51.068;7.026;2022-11-09T14:22:19;99924.06;;;12.45;43.08
59272;BME280;45043;51.068;7.026;2022-11-09T14:25:38;99930.13;;;12.34;43.11
59272;BME280;45043;51.068;7.026;2022-11-09T14:28:56;99935.53;;;12.27;43.62
59272;BME280;45043;51.068;7.026;2022-11-09T14:35:44;99943.56;;;12.02;44.09
59272;BME280;45043;51.068;7.026;2022-11-09T14:39:04;99934.59;;;11.97;44.27
59272;BME280;45043;51.068;7.026;2022-11-09T14:42:24;99951.59;;;12.21;44.33
59272;BME280;45043;51.068;7.026;2022-11-09T14:45:48;99949.13;;;12.19;44.12
59272;BME280;45043;51.068;7.026;2022-11-09T14:49:09;99972.03;;;12.02;44.24
59272;BME280;45043;51.068;7.026;2022-11-09T14:52:29;99962.09;;;11.90;44.66
59272;BME280;45043;51.068;7.026;2022-11-09T14:55:50;99964.38;;;11.87;44.47
59272;BME280;45043;51.068;7.026;2022-11-09T14:59:27;99965.84;;;11.83;44.78
59272;BME280;45043;51.068;7.026;2022-11-09T15:02:47;99977.38;;;11.77;45.21
59272;BME280;45043;51.068;7.026;2022-11-09T15:06:11;99982.47;;;11.72;45.20
59272;BME280;45043;51.068;7.026;2022-11-09T15:09:40;99986.41;;;11.69;45.46
59272;BME280;45043;51.068;7.026;2022-11-09T15:13:01;100003.59;;;11.66;45.50
59272;BME280;45043;51.068;7.026;2022-11-09T15:16:25;100004.03;;;11.63;45.80
59272;BME280;45043;51.068;7.026;2022-11-09T15:19:52;99993.38;;;11.63;46.06
59272;BME280;45043;51.068;7.026;2022-11-09T15:23:32;100001.75;;;11.74;46.11
59272;BME280;45043;51.068;7.026;2022-11-09T15:26:54;100006.41;;;11.72;46.11
59272;BME280;45043;51.068;7.026;2022-11-09T15:30:46;100014.81;;;11.68;46.22
59272;BME280;45043;51.068;7.026;2022-11-09T15:34:20;100011.34;;;11.75;45.99
59272;BME280;45043;51.068;7.026;2022-11-09T15:37:49;100014.25;;;11.66;46.44
59272;BME280;45043;51.068;7.026;2022-11-09T15:41:15;100038.78;;;11.68;46.47
59272;BME280;45043;51.068;7.026;2022-11-09T15:44:35;100012.69;;;11.52;46.58
59272;BME280;45043;51.068;7.026;2022-11-09T15:47:54;100012.53;;;11.47;47.22
59272;BME280;45043;51.068;7.026;2022-11-09T15:51:14;100027.13;;;11.31;47.64
59272;BME280;45043;51.068;7.026;2022-11-09T15:54:33;100027.22;;;11.11;48.24
59272;BME280;45043;51.068;7.026;2022-11-09T15:57:53;100026.88;;;10.94;48.55
59272;BME280;45043;51.068;7.026;2022-11-09T16:01:11;100027.88;;;10.93;48.86
59272;BME280;45043;51.068;7.026;2022-11-09T16:04:30;100032.63;;;10.85;49.17
59272;BME280;45043;51.068;7.026;2022-11-09T16:07:51;100040.22;;;10.75;49.38
59272;BME280;45043;51.068;7.026;2022-11-09T16:11:11;100042.88;;;10.61;49.61
59272;BME280;45043;51.068;7.026;2022-11-09T16:14:31;100055.53;;;10.59;49.99
59272;BME280;45043;51.068;7.026;2022-11-09T16:17:50;100055.53;;;10.53;50.45
59272;BME280;45043;51.068;7.026;2022-11-09T16:21:12;100072.31;;;10.46;50.64
59272;BME280;45043;51.068;7.026;2022-11-09T16:24:32;100079.06;;;10.36;51.11
59272;BME280;45043;51.068;7.026;2022-11-09T16:27:52;100073.94;;;10.41;51.06
59272;BME280;45043;51.068;7.026;2022-11-09T16:31:12;100077.63;;;10.33;51.16
59272;BME280;45043;51.068;7.026;2022-11-09T16:34:31;100075.56;;;10.22;51.37
59272;BME280;45043;51.068;7.026;2022-11-09T16:37:50;100085.78;;;10.18;51.62
59272;BME280;45043;51.068;7.026;2022-11-09T16:41:14;100096.63;;;10.17;51.69
59272;BME280;45043;51.068;7.026;2022-11-09T16:44:37;100096.81;;;10.15;52.00
59272;BME280;45043;51.068;7.026;2022-11-09T16:47:57;100104.97;;;10.14;51.92
59272;BME280;45043;51.068;7.026;2022-11-09T16:51:16;100115.78;;;10.12;52.10
59272;BME280;45043;51.068;7.026;2022-11-09T16:54:35;100122.50;;;10.08;52.16
59272;BME280;45043;51.068;7.026;2022-11-09T16:57:54;100125.81;;;10.10;51.99
59272;BME280;45043;51.068;7.026;2022-11-09T17:01:13;100123.75;;;10.06;52.13
59272;BME280;45043;51.068;7.026;2022-11-09T17:04:32;100130.47;;;10.01;52.59
59272;BME280;45043;51.068;7.026;2022-11-09T17:07:51;100134.13;;;10.00;52.81
59272;BME280;45043;51.068;7.026;2022-11-09T17:11:12;100139.84;;;9.91;53.09
59272;BME280;45043;51.068;7.026;2022-11-09T17:14:32;100142.50;;;9.91;53.05
59272;BME280;45043;51.068;7.026;2022-11-09T17:17:51;100141.66;;;9.90;53.14
59272;BME280;45043;51.068;7.026;2022-11-09T17:21:11;100147.19;;;9.89;53.25
59272;BME280;45043;51.068;7.026;2022-11-09T17:24:32;100143.50;;;9.83;53.29
59272;BME280;45043;51.068;7.026;2022-11-09T17:27:51;100149.59;;;9.77;53.05
59272;BME280;45043;51.068;7.026;2022-11-09T17:31:16;100151.81;;;9.73;53.19
59272;BME280;45043;51.068;7.026;2022-11-09T17:34:36;100165.28;;;9.65;53.64
59272;BME280;45043;51.068;7.026;2022-11-09T17:37:56;100165.44;;;9.64;53.35
59272;BME280;45043;51.068;7.026;2022-11-09T17:41:17;100163.78;;;9.56;53.14
59272;BME280;45043;51.068;7.026;2022-11-09T17:44:36;100183.75;;;9.52;53.03
59272;BME280;45043;51.068;7.026;2022-11-09T17:47:56;100187.22;;;9.52;53.00
59272;BME280;45043;51.068;7.026;2022-11-09T17:51:18;100202.31;;;9.52;52.69
59272;BME280;45043;51.068;7.026;2022-11-09T17:54:37;100212.47;;;9.48;52.97
59272;BME280;45043;51.068;7.026;2022-11-09T17:57:56;100230.81;;;9.43;52.97
59272;BME280;45043;51.068;7.026;2022-11-09T18:01:18;100238.94;;;9.42;53.05
59272;BME280;45043;51.068;7.026;2022-11-09T18:04:37;100221.56;;;9.33;52.88
59272;BME280;45043;51.068;7.026;2022-11-09T18:07:56;100232.00;;;9.41;53.22
59272;BME280;45043;51.068;7.026;2022-11-09T18:11:16;100237.75;;;9.44;53.25
59272;BME280;45043;51.068;7.026;2022-11-09T18:14:35;100236.53;;;9.47;53.14
59272;BME280;45043;51.068;7.026;2022-11-09T18:17:54;100243.69;;;9.46;53.50
59272;BME280;45043;51.068;7.026;2022-11-09T18:21:16;100248.78;;;9.48;53.21